createdAt,value
2018-06-01T00:00:37.907Z,78.13
2018-06-01T00:01:41.960Z,78.17
2018-06-01T00:02:46.094Z,78.01
2018-06-01T00:03:50.630Z,77.73
2018-06-01T00:04:56.081Z,77.50
2018-06-01T00:06:00.170Z,77.69
2018-06-01T00:07:04.247Z,77.80
2018-06-01T00:08:08.364Z,77.67
2018-06-01T00:09:17.886Z,77.65
2018-06-01T00:10:21.960Z,77.72
2018-06-01T00:11:26.403Z,77.49
2018-06-01T00:12:30.465Z,77.44
2018-06-01T00:13:34.588Z,77.73
2018-06-01T00:14:38.650Z,78.05
2018-06-01T00:15:43.228Z,78.41
2018-06-01T00:16:47.356Z,78.82
2018-06-01T00:17:51.746Z,78.95
2018-06-01T00:18:56.002Z,78.65
2018-06-01T00:20:00.219Z,78.49
2018-06-01T00:21:05.300Z,78.11
2018-06-01T00:22:09.374Z,77.79
2018-06-01T00:23:13.842Z,77.63
2018-06-01T00:24:17.948Z,77.84
2018-06-01T00:25:22.028Z,77.87
2018-06-01T00:26:26.256Z,77.45
2018-06-01T00:27:30.350Z,77.29
2018-06-01T00:28:34.428Z,77.34
2018-06-01T00:29:38.828Z,77.46
2018-06-01T00:30:42.994Z,77.30
2018-06-01T00:31:47.032Z,77.17
2018-06-01T00:32:51.177Z,76.96
2018-06-01T00:33:55.268Z,76.74
2018-06-01T00:35:00.028Z,76.80
2018-06-01T00:36:04.092Z,76.70
2018-06-01T00:37:08.162Z,76.88
2018-06-01T00:38:12.214Z,76.97
2018-06-01T00:39:16.278Z,77.04
2018-06-01T00:40:20.382Z,77.14
2018-06-01T00:41:24.754Z,77.21
2018-06-01T00:42:28.897Z,77.17
2018-06-01T00:43:32.972Z,77.31
2018-06-01T00:44:37.038Z,77.28
2018-06-01T00:45:41.356Z,77.43
2018-06-01T00:46:45.486Z,77.82
2018-06-01T00:47:49.868Z,78.27
2018-06-01T00:48:53.974Z,78.67
2018-06-01T00:49:58.023Z,78.66
2018-06-01T00:52:16.896Z,78.70
2018-06-01T00:53:20.999Z,79.13
2018-06-01T00:54:25.445Z,79.48
2018-06-01T00:55:29.508Z,79.87
2018-06-01T00:56:33.570Z,80.28
2018-06-01T00:57:37.750Z,80.46
2018-06-01T00:58:41.854Z,80.69
2018-06-01T00:59:45.925Z,80.97
2018-06-01T01:00:50.688Z,80.98
2018-06-01T01:01:54.759Z,80.96
2018-06-01T01:02:59.295Z,80.83
2018-06-01T01:04:04.290Z,80.85
2018-06-01T01:05:08.346Z,80.78
2018-06-01T01:06:12.406Z,80.76
2018-06-01T01:07:16.806Z,80.81
2018-06-01T01:08:21.200Z,80.66
2018-06-01T01:09:25.272Z,80.49
2018-06-01T01:10:29.356Z,80.38
2018-06-01T01:11:33.502Z,80.40
2018-06-01T01:12:37.567Z,80.57
2018-06-01T01:13:42.039Z,80.63
2018-06-01T01:14:46.735Z,80.77
2018-06-01T01:15:51.278Z,80.77
2018-06-01T01:16:55.353Z,80.86
2018-06-01T01:17:59.409Z,81.15
2018-06-01T01:19:03.877Z,81.57
2018-06-01T01:20:08.255Z,81.81
2018-06-01T01:21:12.318Z,82.02
2018-06-01T01:22:17.252Z,82.20
2018-06-01T01:23:21.392Z,82.36
2018-06-01T01:24:25.501Z,82.67
2018-06-01T01:25:29.699Z,82.87
2018-06-01T01:26:33.780Z,82.77
2018-06-01T01:27:37.854Z,82.75
2018-06-01T01:28:42.024Z,82.85
2018-06-01T01:29:46.130Z,82.91
2018-06-01T01:30:50.503Z,82.98
2018-06-01T01:31:55.533Z,82.92
2018-06-01T01:32:59.663Z,82.96
2018-06-01T01:34:03.719Z,83.04
2018-06-01T01:35:08.071Z,83.20
2018-06-01T01:36:12.111Z,83.28
2018-06-01T01:37:17.273Z,83.46
2018-06-01T01:38:21.961Z,83.76
2018-06-01T01:39:26.835Z,83.76
2018-06-01T01:40:30.934Z,83.84
2018-06-01T01:41:34.981Z,83.80
2018-06-01T01:42:39.039Z,83.72
2018-06-01T01:43:43.105Z,83.55
2018-06-01T01:44:47.502Z,83.33
2018-06-01T01:45:51.895Z,83.25
2018-06-01T01:46:55.967Z,83.21
2018-06-01T01:48:00.019Z,83.03
2018-06-01T01:49:04.179Z,82.81
2018-06-01T01:50:08.289Z,82.74
2018-06-01T01:51:12.637Z,82.66
2018-06-01T01:52:16.739Z,82.71
2018-06-01T01:53:21.815Z,82.75
2018-06-01T01:54:25.877Z,82.67
2018-06-01T01:55:29.957Z,82.75
2018-06-01T01:56:34.073Z,82.77
2018-06-01T01:57:38.136Z,82.87
2018-06-01T01:58:42.197Z,82.82
2018-06-01T01:59:46.279Z,82.77
2018-06-01T02:00:50.790Z,82.71
2018-06-01T02:01:54.898Z,82.75
2018-06-01T02:02:58.998Z,82.74
2018-06-01T02:04:03.337Z,82.63
2018-06-01T02:05:07.394Z,82.58
2018-06-01T02:06:12.022Z,82.70
2018-06-01T02:07:16.143Z,82.72
2018-06-01T02:08:20.251Z,82.61
2018-06-01T02:09:24.336Z,82.51
2018-06-01T02:10:28.770Z,82.81
2018-06-01T02:11:32.842Z,83.13
2018-06-01T02:12:36.895Z,83.39
2018-06-01T02:13:41.026Z,83.60
2018-06-01T02:14:45.103Z,83.59
2018-06-01T02:15:49.544Z,83.27
2018-06-01T02:16:54.040Z,82.80
2018-06-01T02:17:58.144Z,82.29
2018-06-01T02:19:02.268Z,81.70
2018-06-01T02:20:06.340Z,81.24
2018-06-01T02:21:10.432Z,80.90
2018-06-01T02:22:14.860Z,80.74
2018-06-01T02:23:18.930Z,80.83
2018-06-01T02:24:23.004Z,81.24
2018-06-01T02:25:27.075Z,81.96
2018-06-01T02:26:31.236Z,82.57
2018-06-01T02:27:35.286Z,82.95
2018-06-01T02:28:39.656Z,83.25
2018-06-01T02:29:43.844Z,83.62
2018-06-01T02:30:48.244Z,83.87
2018-06-01T02:31:52.295Z,84.01
2018-06-01T02:32:56.363Z,84.29
2018-06-01T02:34:00.439Z,84.11
2018-06-01T02:35:04.874Z,83.90
2018-06-01T02:36:08.956Z,83.54
2018-06-01T02:37:13.054Z,83.24
2018-06-01T02:38:17.816Z,83.13
2018-06-01T02:39:21.996Z,83.25
2018-06-01T02:40:26.116Z,83.63
2018-06-01T02:41:30.522Z,84.02
2018-06-01T02:42:34.692Z,84.43
2018-06-01T02:43:38.758Z,84.78
2018-06-01T02:44:42.832Z,85.01
2018-06-01T02:45:47.066Z,85.22
2018-06-01T02:46:51.148Z,85.43
2018-06-01T02:47:55.232Z,85.64
2018-06-01T02:48:59.358Z,85.88
2018-06-01T02:50:03.495Z,86.05
2018-06-01T02:51:07.595Z,86.23
2018-06-01T02:52:11.737Z,86.32
2018-06-01T02:53:15.784Z,86.20
2018-06-01T02:54:21.122Z,85.96
2018-06-01T02:55:25.205Z,85.81
2018-06-01T02:56:29.317Z,85.82
2018-06-01T02:57:33.404Z,85.96
2018-06-01T02:58:37.460Z,86.09
2018-06-01T02:59:41.804Z,86.19
2018-06-01T03:00:46.650Z,86.28
2018-06-01T03:01:50.991Z,86.17
2018-06-01T03:02:55.370Z,86.25
2018-06-01T03:03:59.466Z,86.16
2018-06-01T03:05:03.632Z,86.08
2018-06-01T03:06:07.700Z,86.17
2018-06-01T03:07:13.860Z,86.33
2018-06-01T03:08:17.968Z,86.23
2018-06-01T03:09:22.946Z,86.02
2018-06-01T03:10:27.088Z,84.96
2018-06-01T03:11:31.152Z,84.13
2018-06-01T03:12:35.206Z,83.12
2018-06-01T03:13:39.562Z,82.84
2018-06-01T03:14:43.717Z,82.74
2018-06-01T03:15:47.910Z,82.95
2018-06-01T03:16:51.962Z,83.04
2018-06-01T03:17:56.037Z,83.03
2018-06-01T03:19:00.186Z,83.55
2018-06-01T03:20:04.554Z,84.23
2018-06-01T03:21:08.652Z,84.67
2018-06-01T03:22:13.583Z,84.96
2018-06-01T03:23:17.643Z,84.99
2018-06-01T03:24:21.734Z,85.01
2018-06-01T03:25:25.826Z,84.96
2018-06-01T03:26:30.246Z,84.64
2018-06-01T03:27:34.357Z,84.37
2018-06-01T03:28:38.440Z,84.24
2018-06-01T03:29:42.502Z,84.16
2018-06-01T03:30:46.810Z,84.33
2018-06-01T03:31:50.897Z,84.40
2018-06-01T03:32:55.000Z,84.39
2018-06-01T03:33:59.108Z,84.16
2018-06-01T03:35:03.272Z,83.95
2018-06-01T03:36:07.716Z,83.71
2018-06-01T03:37:13.920Z,83.47
2018-06-01T03:38:19.158Z,83.38
2018-06-01T03:39:23.544Z,83.37
2018-06-01T03:40:27.659Z,83.41
2018-06-01T03:41:31.726Z,83.37
2018-06-01T03:42:35.854Z,83.45
2018-06-01T03:43:39.926Z,83.53
2018-06-01T03:44:43.994Z,83.45
2018-06-01T03:45:48.888Z,83.33
2018-06-01T03:46:53.089Z,83.30
2018-06-01T03:47:57.155Z,83.25
2018-06-01T03:49:01.240Z,83.35
2018-06-01T03:50:05.367Z,83.48
2018-06-01T03:51:09.428Z,83.60
2018-06-01T03:52:13.796Z,83.47
2018-06-01T03:53:17.956Z,83.50
2018-06-01T03:54:22.333Z,83.25
2018-06-01T03:55:26.670Z,83.38
2018-06-01T03:56:30.765Z,83.43
2018-06-01T03:57:34.900Z,83.48
2018-06-01T03:58:39.006Z,83.10
2018-06-01T03:59:43.086Z,82.88
2018-06-01T04:00:47.301Z,82.85
2018-06-01T04:01:51.356Z,82.61
2018-06-01T04:02:55.538Z,82.69
2018-06-01T04:03:59.630Z,82.82
2018-06-01T04:05:03.998Z,82.46
2018-06-01T04:06:08.095Z,81.53
2018-06-01T04:07:12.580Z,80.99
2018-06-01T04:08:17.180Z,80.51
2018-06-01T04:09:26.227Z,79.71
2018-06-01T04:10:30.302Z,79.24
2018-06-01T04:11:34.759Z,78.56
2018-06-01T04:12:38.814Z,78.03
2018-06-01T04:13:43.374Z,77.81
2018-06-01T04:14:47.776Z,77.46
2018-06-01T04:15:52.051Z,76.98
2018-06-01T04:16:56.143Z,76.71
2018-06-01T04:18:00.888Z,76.37
2018-06-01T04:19:05.323Z,76.34
2018-06-01T04:20:09.419Z,75.85
2018-06-01T04:21:13.562Z,75.41
2018-06-01T04:22:17.628Z,74.89
2018-06-01T04:23:22.700Z,74.22
2018-06-01T04:24:27.580Z,73.96
2018-06-01T04:25:31.669Z,73.64
2018-06-01T04:26:35.726Z,73.38
2018-06-01T04:27:39.859Z,73.40
2018-06-01T04:28:43.937Z,72.83
2018-06-01T04:29:48.403Z,72.93
2018-06-01T04:30:53.539Z,72.93
2018-06-01T04:31:57.613Z,72.61
2018-06-01T04:33:01.719Z,72.63
2018-06-01T04:34:05.791Z,72.54
2018-06-01T04:35:09.925Z,72.11
2018-06-01T04:36:14.289Z,71.12
2018-06-01T04:37:18.901Z,70.36
2018-06-01T04:38:24.043Z,69.80
2018-06-01T04:39:28.122Z,69.47
2018-06-01T04:40:32.239Z,69.90
2018-06-01T04:41:36.418Z,69.98
2018-06-01T04:42:40.783Z,69.94
2018-06-01T04:43:44.863Z,69.59
2018-06-01T04:44:49.001Z,69.63
2018-06-01T04:45:53.423Z,69.55
2018-06-01T04:46:58.103Z,69.74
2018-06-01T04:48:02.526Z,69.66
2018-06-01T04:49:06.789Z,69.82
2018-06-01T04:50:10.861Z,69.83
2018-06-01T04:51:14.936Z,69.86
2018-06-01T04:52:18.997Z,69.33
2018-06-01T04:53:23.602Z,69.21
2018-06-01T04:54:27.666Z,69.58
2018-06-01T04:55:32.137Z,70.16
2018-06-01T04:56:36.260Z,70.78
2018-06-01T04:57:40.323Z,70.42
2018-06-01T04:58:44.435Z,70.23
2018-06-01T04:59:48.605Z,70.60
2018-06-01T05:00:52.815Z,70.90
2018-06-01T05:01:57.241Z,70.54
2018-06-01T05:03:01.299Z,70.42
2018-06-01T05:04:05.385Z,69.68
2018-06-01T05:05:09.545Z,69.48
2018-06-01T05:06:14.109Z,69.70
2018-06-01T05:07:18.193Z,69.91
2018-06-01T05:08:22.343Z,69.89
2018-06-01T05:09:26.459Z,69.43
2018-06-01T05:10:30.515Z,69.05
2018-06-01T05:11:35.011Z,68.57
2018-06-01T05:12:39.384Z,68.47
2018-06-01T05:13:43.861Z,68.46
2018-06-01T05:14:47.937Z,68.59
2018-06-01T05:15:52.342Z,67.94
2018-06-01T05:16:56.450Z,67.51
2018-06-01T05:18:00.519Z,66.84
2018-06-01T05:19:04.635Z,65.73
2018-06-01T05:20:08.693Z,65.58
2018-06-01T05:21:12.835Z,65.54
2018-06-01T05:22:16.960Z,65.01
2018-06-01T05:23:21.010Z,65.22
2018-06-01T05:24:25.069Z,64.70
2018-06-01T05:25:29.506Z,63.81
2018-06-01T05:26:33.626Z,63.78
2018-06-01T05:27:37.683Z,63.74
2018-06-01T05:28:41.981Z,63.85
2018-06-01T05:29:46.042Z,63.78
2018-06-01T05:30:50.599Z,63.41
2018-06-01T05:31:54.992Z,63.57
2018-06-01T05:32:59.092Z,63.01
2018-06-01T05:34:03.161Z,61.96
2018-06-01T05:35:07.340Z,61.21
2018-06-01T05:36:11.474Z,61.07
2018-06-01T05:37:15.581Z,60.56
2018-06-01T05:38:19.971Z,60.89
2018-06-01T05:39:24.123Z,60.32
2018-06-01T05:40:28.176Z,60.45
2018-06-01T05:41:32.280Z,60.10
2018-06-01T05:42:36.383Z,59.94
2018-06-01T05:43:40.522Z,60.11
2018-06-01T05:44:44.589Z,59.29
2018-06-01T05:45:48.812Z,59.00
2018-06-01T05:46:52.958Z,58.84
2018-06-01T05:47:57.004Z,58.84
2018-06-01T05:49:01.070Z,58.92
2018-06-01T05:50:05.169Z,59.17
2018-06-01T05:51:09.610Z,58.29
2018-06-01T05:52:13.660Z,58.56
2018-06-01T05:53:17.708Z,58.78
2018-06-01T05:54:21.882Z,58.60
2018-06-01T05:55:26.005Z,58.09
2018-06-01T05:56:30.094Z,57.80
2018-06-01T05:57:34.538Z,57.79
2018-06-01T05:58:39.500Z,57.03
2018-06-01T05:59:43.652Z,57.20
2018-06-01T06:00:49.162Z,57.36
2018-06-01T06:01:53.464Z,56.48
2018-06-01T06:02:57.830Z,56.99
2018-06-01T06:04:02.441Z,56.91
2018-06-01T06:05:06.497Z,56.60
2018-06-01T06:06:10.631Z,57.34
2018-06-01T06:07:14.779Z,57.43
2018-06-01T06:08:18.823Z,56.96
2018-06-01T06:09:23.212Z,56.98
2018-06-01T06:10:27.292Z,56.30
2018-06-01T06:11:31.430Z,54.73
2018-06-01T06:12:35.524Z,53.70
2018-06-01T06:13:39.609Z,53.15
2018-06-01T06:14:43.744Z,53.22
2018-06-01T06:15:48.258Z,53.12
2018-06-01T06:16:52.304Z,51.70
2018-06-01T06:17:56.437Z,51.63
2018-06-01T06:19:00.507Z,51.96
2018-06-01T06:20:04.786Z,52.40
2018-06-01T06:21:08.853Z,52.49
2018-06-01T06:22:13.236Z,52.75
2018-06-01T06:23:17.288Z,53.44
2018-06-01T06:24:21.386Z,53.75
2018-06-01T06:25:25.439Z,53.06
2018-06-01T06:26:29.486Z,52.37
2018-06-01T06:27:33.644Z,50.92
2018-06-01T06:28:38.259Z,49.87
2018-06-01T06:29:43.286Z,49.47
2018-06-01T06:30:47.660Z,49.44
2018-06-01T06:31:52.254Z,49.16
2018-06-01T06:32:56.386Z,49.09
2018-06-01T06:34:01.833Z,48.18
2018-06-01T06:35:05.982Z,48.11
2018-06-01T06:36:10.090Z,48.51
2018-06-01T06:37:14.188Z,47.82
2018-06-01T06:38:18.243Z,48.01
2018-06-01T06:39:22.610Z,46.96
2018-06-01T06:40:26.910Z,46.95
2018-06-01T06:41:31.340Z,46.82
2018-06-01T06:42:35.531Z,47.06
2018-06-01T06:43:39.610Z,46.48
2018-06-01T06:44:44.278Z,46.92
2018-06-01T06:45:48.656Z,47.40
2018-06-01T06:46:53.256Z,48.23
2018-06-01T06:47:57.336Z,47.80
2018-06-01T06:49:01.381Z,47.66
2018-06-01T06:50:05.490Z,46.90
2018-06-01T06:51:09.565Z,46.94
2018-06-01T06:52:13.632Z,46.88
2018-06-01T06:53:18.193Z,47.21
2018-06-01T06:54:22.330Z,47.43
2018-06-01T06:55:26.388Z,47.82
2018-06-01T06:56:30.532Z,48.38
2018-06-01T06:57:34.610Z,48.81
2018-06-01T06:58:38.673Z,49.15
2018-06-01T06:59:43.264Z,48.61
2018-06-01T07:00:47.569Z,48.34
2018-06-01T07:01:51.757Z,48.16
2018-06-01T07:02:56.444Z,47.94
2018-06-01T07:04:00.526Z,47.45
2018-06-01T07:05:05.125Z,47.27
2018-06-01T07:06:09.214Z,46.86
2018-06-01T07:07:13.504Z,46.40
2018-06-01T07:08:17.698Z,46.04
2018-06-01T07:09:21.784Z,44.63
2018-06-01T07:10:25.982Z,43.93
2018-06-01T07:11:30.359Z,44.24
2018-06-01T07:12:34.424Z,43.96
2018-06-01T07:13:39.312Z,44.26
2018-06-01T07:14:43.414Z,44.01
2018-06-01T07:15:48.322Z,43.74
2018-06-01T07:16:53.962Z,43.95
2018-06-01T07:17:58.960Z,44.04
2018-06-01T07:19:03.113Z,43.59
2018-06-01T07:20:07.174Z,42.28
2018-06-01T07:21:11.252Z,42.32
2018-06-01T07:22:15.416Z,42.56
2018-06-01T07:23:19.544Z,42.26
2018-06-01T07:24:23.924Z,42.54
2018-06-01T07:25:28.020Z,42.69
2018-06-01T07:26:32.207Z,42.30
2018-06-01T07:27:36.474Z,40.82
2018-06-01T07:28:40.670Z,40.98
2018-06-01T07:29:44.768Z,41.33
2018-06-01T07:30:50.110Z,41.97
2018-06-01T07:31:54.518Z,40.93
2018-06-01T07:32:59.164Z,41.21
2018-06-01T07:34:03.312Z,41.12
2018-06-01T07:35:07.492Z,40.98
2018-06-01T07:36:11.618Z,41.90
2018-06-01T07:37:16.010Z,42.41
2018-06-01T07:38:20.076Z,42.62
2018-06-01T07:39:24.224Z,43.15
2018-06-01T07:40:28.328Z,43.64
2018-06-01T07:41:32.392Z,43.78
2018-06-01T07:42:36.472Z,43.28
2018-06-01T07:43:40.944Z,43.59
2018-06-01T07:44:45.015Z,43.50
2018-06-01T07:45:49.672Z,43.26
2018-06-01T07:46:53.750Z,42.65
2018-06-01T07:47:58.564Z,41.79
2018-06-01T07:49:03.614Z,41.04
2018-06-01T07:50:08.496Z,41.98
2018-06-01T07:51:12.645Z,43.42
2018-06-01T07:52:16.719Z,43.90
2018-06-01T07:53:20.800Z,43.78
2018-06-01T07:54:24.931Z,44.54
2018-06-01T07:55:29.019Z,43.62
2018-06-01T07:56:33.078Z,42.49
2018-06-01T07:57:37.134Z,42.20
2018-06-01T07:58:41.307Z,41.82
2018-06-01T07:59:45.397Z,42.22
2018-06-01T08:00:49.927Z,42.58
2018-06-01T08:01:54.325Z,43.40
2018-06-01T08:02:59.563Z,43.57
2018-06-01T08:04:04.403Z,43.67
2018-06-01T08:05:08.586Z,43.52
2018-06-01T08:06:12.701Z,43.71
2018-06-01T08:07:16.781Z,42.74
2018-06-01T08:08:21.170Z,42.15
2018-06-01T08:09:25.290Z,41.48
2018-06-01T08:10:29.356Z,41.02
2018-06-01T08:11:33.409Z,39.73
2018-06-01T08:12:37.560Z,39.55
2018-06-01T08:13:41.638Z,39.00
2018-06-01T08:14:46.071Z,39.22
2018-06-01T08:15:50.596Z,39.29
2018-06-01T08:16:54.661Z,39.58
2018-06-01T08:17:58.810Z,39.97
2018-06-01T08:19:03.742Z,39.89
2018-06-01T08:20:07.840Z,39.00
2018-06-01T08:21:11.948Z,38.78
2018-06-01T08:22:16.046Z,37.09
2018-06-01T08:23:20.205Z,37.84
2018-06-01T08:24:24.295Z,37.71
2018-06-01T08:25:28.353Z,38.42
2018-06-01T08:26:32.466Z,39.63
2018-06-01T08:27:36.822Z,40.07
2018-06-01T08:28:40.938Z,39.66
2018-06-01T08:29:45.077Z,39.34
2018-06-01T08:30:49.422Z,39.59
2018-06-01T08:31:53.497Z,39.76
2018-06-01T08:32:57.680Z,38.77
2018-06-01T08:34:03.234Z,37.38
2018-06-01T08:35:08.140Z,37.42
2018-06-01T08:36:12.262Z,37.29
2018-06-01T08:37:16.520Z,37.33
2018-06-01T08:38:20.595Z,37.20
2018-06-01T08:39:25.454Z,37.71
2018-06-01T08:40:29.460Z,38.06
2018-06-01T08:41:33.516Z,38.56
2018-06-01T08:42:37.715Z,37.93
2018-06-01T08:43:41.864Z,37.89
2018-06-01T08:44:46.044Z,37.05
2018-06-01T08:45:50.924Z,37.28
2018-06-01T08:46:55.086Z,37.07
2018-06-01T08:47:59.254Z,36.77
2018-06-01T08:49:03.922Z,36.96
2018-06-01T08:50:09.106Z,37.39
2018-06-01T08:51:13.550Z,37.65
2018-06-01T08:52:17.632Z,37.69
2018-06-01T08:53:21.726Z,38.40
2018-06-01T08:54:25.802Z,38.31
2018-06-01T08:55:29.934Z,37.96
2018-06-01T08:56:34.151Z,37.58
2018-06-01T08:57:38.566Z,38.08
2018-06-01T08:58:42.664Z,37.35
2018-06-01T08:59:46.858Z,38.19
2018-06-01T09:00:51.370Z,38.10
2018-06-01T09:01:55.436Z,38.43
2018-06-01T09:02:59.502Z,38.13
2018-06-01T09:04:03.962Z,38.35
2018-06-01T09:05:08.122Z,38.76
2018-06-01T09:06:12.184Z,37.47
2018-06-01T09:07:16.296Z,38.42
2018-06-01T09:08:20.350Z,38.95
2018-06-01T09:09:24.528Z,37.77
2018-06-01T09:10:28.943Z,37.76
2018-06-01T09:11:33.091Z,38.15
2018-06-01T09:12:37.196Z,37.97
2018-06-01T09:13:41.306Z,37.48
2018-06-01T09:14:45.452Z,37.77
2018-06-01T09:15:50.266Z,37.75
2018-06-01T09:16:54.638Z,37.79
2018-06-01T09:17:58.712Z,38.20
2018-06-01T09:19:03.303Z,37.04
2018-06-01T09:20:07.357Z,37.28
2018-06-01T09:21:12.144Z,36.91
2018-06-01T09:22:16.258Z,38.07
2018-06-01T09:23:20.688Z,37.98
2018-06-01T09:24:24.833Z,38.82
2018-06-01T09:25:28.921Z,38.43
2018-06-01T09:26:33.045Z,38.42
2018-06-01T09:27:37.102Z,38.04
2018-06-01T09:28:41.266Z,37.89
2018-06-01T09:29:45.670Z,38.07
2018-06-01T09:30:50.072Z,37.66
2018-06-01T09:31:54.146Z,37.60
2018-06-01T09:32:58.213Z,37.70
2018-06-01T09:34:03.377Z,37.59
2018-06-01T09:35:07.524Z,37.44
2018-06-01T09:36:12.852Z,37.49
2018-06-01T09:37:16.914Z,37.93
2018-06-01T09:38:21.066Z,37.72
2018-06-01T09:39:25.138Z,37.83
2018-06-01T09:40:29.208Z,36.91
2018-06-01T09:41:33.274Z,36.92
2018-06-01T09:42:37.356Z,37.26
2018-06-01T09:43:41.568Z,37.41
2018-06-01T09:44:45.645Z,37.67
2018-06-01T09:45:50.374Z,36.68
2018-06-01T09:46:54.936Z,36.99
2018-06-01T09:47:59.092Z,36.46
2018-06-01T09:49:03.691Z,35.88
2018-06-01T09:50:08.636Z,36.09
2018-06-01T09:51:13.534Z,36.01
2018-06-01T09:52:17.775Z,36.30
2018-06-01T09:53:22.210Z,35.79
2018-06-01T09:54:26.293Z,35.48
2018-06-01T09:55:30.521Z,35.52
2018-06-01T09:56:34.555Z,35.31
2018-06-01T09:57:38.616Z,35.70
2018-06-01T09:58:42.701Z,35.38
2018-06-01T09:59:47.090Z,36.19
2018-06-01T10:00:55.317Z,36.14
2018-06-01T10:01:59.408Z,36.56
2018-06-01T10:03:03.712Z,36.24
2018-06-01T10:04:07.793Z,36.17
2018-06-01T10:05:12.013Z,36.31
2018-06-01T10:06:16.358Z,36.60
2018-06-01T10:07:20.432Z,36.24
2018-06-01T10:08:24.512Z,36.02
2018-06-01T10:09:28.647Z,35.82
2018-06-01T10:10:37.255Z,36.02
2018-06-01T10:11:41.304Z,36.05
2018-06-01T10:12:45.453Z,35.34
2018-06-01T10:13:49.536Z,35.30
2018-06-01T10:14:53.722Z,35.14
2018-06-01T10:15:58.108Z,35.38
2018-06-01T10:17:03.097Z,35.35
2018-06-01T10:18:08.179Z,34.37
2018-06-01T10:19:12.756Z,33.57
2018-06-01T10:20:16.875Z,33.66
2018-06-01T10:21:20.967Z,33.39
2018-06-01T10:22:25.130Z,33.13
2018-06-01T10:23:29.492Z,33.37
2018-06-01T10:24:33.588Z,33.93
2018-06-01T10:25:37.745Z,33.84
2018-06-01T10:26:41.849Z,33.76
2018-06-01T10:27:46.050Z,33.65
2018-06-01T10:28:50.179Z,33.19
2018-06-01T10:29:54.558Z,32.43
2018-06-01T10:30:59.081Z,32.32
2018-06-01T10:32:03.352Z,32.12
2018-06-01T10:33:08.431Z,31.86
2018-06-01T10:34:12.504Z,31.47
2018-06-01T10:35:16.693Z,29.94
2018-06-01T10:36:21.151Z,29.35
2018-06-01T10:37:25.222Z,29.71
2018-06-01T10:38:29.381Z,29.50
2018-06-01T10:39:33.476Z,29.94
2018-06-01T10:40:37.643Z,29.90
2018-06-01T10:41:41.777Z,30.37
2018-06-01T10:42:45.863Z,29.71
2018-06-01T10:43:49.943Z,30.08
2018-06-01T10:44:54.112Z,30.00
2018-06-01T10:45:59.534Z,29.93
2018-06-01T10:47:03.659Z,29.09
2018-06-01T10:48:07.765Z,29.54
2018-06-01T10:49:12.379Z,29.82
2018-06-01T10:50:16.469Z,29.27
2018-06-01T10:51:20.527Z,28.76
2018-06-01T10:52:24.629Z,27.92
2018-06-01T10:53:28.773Z,27.47
2018-06-01T10:54:32.955Z,27.30
2018-06-01T10:55:37.403Z,27.06
2018-06-01T10:56:41.483Z,26.94
2018-06-01T10:57:45.684Z,27.85
2018-06-01T10:58:49.824Z,27.36
2018-06-01T10:59:53.949Z,26.63
2018-06-01T11:00:58.720Z,27.33
2018-06-01T11:02:03.191Z,27.97
2018-06-01T11:03:07.258Z,28.18
2018-06-01T11:04:11.336Z,29.33
2018-06-01T11:05:15.427Z,28.69
2018-06-01T11:06:19.603Z,29.32
2018-06-01T11:07:23.708Z,28.60
2018-06-01T11:08:27.783Z,28.96
2018-06-01T11:09:32.024Z,29.17
2018-06-01T11:10:36.107Z,29.29
2018-06-01T11:11:40.209Z,28.93
2018-06-01T11:12:44.591Z,28.22
2018-06-01T11:13:48.737Z,27.60
2018-06-01T11:14:52.885Z,27.19
2018-06-01T11:15:57.265Z,27.37
2018-06-01T11:17:01.379Z,27.68
2018-06-01T11:18:06.435Z,28.24
2018-06-01T11:19:11.063Z,28.07
2018-06-01T11:20:15.173Z,27.68
2018-06-01T11:21:19.274Z,27.78
2018-06-01T11:22:23.437Z,27.39
2018-06-01T11:23:27.496Z,27.00
2018-06-01T11:24:31.594Z,26.66
2018-06-01T11:25:35.977Z,27.03
2018-06-01T11:26:40.136Z,26.95
2018-06-01T11:27:44.227Z,27.33
2018-06-01T11:28:48.316Z,27.51
2018-06-01T11:29:52.464Z,29.14
2018-06-01T11:30:56.645Z,29.27
2018-06-01T11:32:01.390Z,29.49
2018-06-01T11:33:05.739Z,30.32
2018-06-01T11:34:09.841Z,30.47
2018-06-01T11:35:13.999Z,30.52
2018-06-01T11:36:18.069Z,30.10
2018-06-01T11:37:22.488Z,29.18
2018-06-01T11:38:26.879Z,29.15
2018-06-01T11:39:30.991Z,28.29
2018-06-01T11:40:35.035Z,28.48
2018-06-01T11:41:39.167Z,28.73
2018-06-01T11:42:43.232Z,28.94
2018-06-01T11:43:47.409Z,30.56
2018-06-01T11:44:51.559Z,31.65
2018-06-01T11:45:56.099Z,32.14
2018-06-01T11:47:02.656Z,31.62
2018-06-01T11:48:07.247Z,32.23
2018-06-01T11:49:11.524Z,31.70
2018-06-01T11:50:16.169Z,32.44
2018-06-01T11:51:20.256Z,33.25
2018-06-01T11:52:24.391Z,33.86
2018-06-01T11:53:28.448Z,33.79
2018-06-01T11:54:32.840Z,34.02
2018-06-01T11:55:36.939Z,34.88
2018-06-01T11:56:41.105Z,36.09
2018-06-01T11:57:45.177Z,36.93
2018-06-01T11:58:49.302Z,37.53
2018-06-01T11:59:53.407Z,38.36
2018-06-01T12:00:58.195Z,38.18
2018-06-01T12:02:02.487Z,38.96
2018-06-01T12:03:06.806Z,39.94
2018-06-01T12:04:11.473Z,39.88
2018-06-01T12:05:15.907Z,40.22
2018-06-01T12:06:20.051Z,40.38
2018-06-01T12:07:24.525Z,40.48
2018-06-01T12:08:31.476Z,40.83
2018-06-01T12:09:35.578Z,40.75
2018-06-01T12:10:39.685Z,41.62
2018-06-01T12:11:43.830Z,41.88
2018-06-01T12:12:47.895Z,41.93
2018-06-01T12:13:51.997Z,41.74
2018-06-01T12:14:56.105Z,42.21
2018-06-01T12:16:00.685Z,42.12
2018-06-01T12:17:05.221Z,42.18
2018-06-01T12:18:10.246Z,42.00
2018-06-01T12:19:14.341Z,41.95
2018-06-01T12:20:19.319Z,42.97
2018-06-01T12:21:23.390Z,42.95
2018-06-01T12:22:27.712Z,43.10
2018-06-01T12:23:31.787Z,43.76
2018-06-01T12:24:35.885Z,43.93
2018-06-01T12:25:40.003Z,43.26
2018-06-01T12:26:44.456Z,43.30
2018-06-01T12:27:48.533Z,43.33
2018-06-01T12:28:52.615Z,42.09
2018-06-01T12:29:56.812Z,42.12
2018-06-01T12:31:01.098Z,42.56
2018-06-01T12:32:05.236Z,42.58
2018-06-01T12:33:10.511Z,42.53
2018-06-01T12:34:14.551Z,42.14
2018-06-01T12:35:18.605Z,42.52
2018-06-01T12:36:22.753Z,42.38
2018-06-01T12:37:26.848Z,42.40
2018-06-01T12:38:30.982Z,42.54
2018-06-01T12:39:35.108Z,41.67
2018-06-01T12:40:39.268Z,41.39
2018-06-01T12:41:43.324Z,41.50
2018-06-01T12:42:47.431Z,41.73
2018-06-01T12:43:51.611Z,41.64
2018-06-01T12:44:55.735Z,41.57
2018-06-01T12:46:00.337Z,41.31
2018-06-01T12:47:04.480Z,41.07
2018-06-01T12:48:08.573Z,41.03
2018-06-01T12:49:12.707Z,40.60
2018-06-01T12:50:18.248Z,41.03
2018-06-01T12:51:22.412Z,41.14
2018-06-01T12:52:26.522Z,40.64
2018-06-01T12:53:30.684Z,40.97
2018-06-01T12:54:34.887Z,40.97
2018-06-01T12:55:38.975Z,41.15
2018-06-01T12:56:43.418Z,40.99
2018-06-01T12:57:47.509Z,40.94
2018-06-01T12:58:51.615Z,41.01
2018-06-01T12:59:55.685Z,40.39
2018-06-01T13:01:00.141Z,40.46
2018-06-01T13:02:04.352Z,40.94
2018-06-01T13:03:09.544Z,41.10
2018-06-01T13:04:13.845Z,41.60
2018-06-01T13:05:17.931Z,41.50
2018-06-01T13:06:21.992Z,41.16
2018-06-01T13:07:26.161Z,41.77
2018-06-01T13:08:30.219Z,42.50
2018-06-01T13:09:34.300Z,42.36
2018-06-01T13:10:38.443Z,42.46
2018-06-01T13:11:42.657Z,42.79
2018-06-01T13:12:46.758Z,45.11
2018-06-01T13:13:50.833Z,46.99
2018-06-01T13:14:54.945Z,50.30
2018-06-01T13:15:59.737Z,53.27
2018-06-01T13:17:04.151Z,54.40
2018-06-01T13:18:08.523Z,55.80
2018-06-01T13:19:12.608Z,56.73
2018-06-01T13:20:17.482Z,56.96
2018-06-01T13:21:21.809Z,57.56
2018-06-01T13:22:26.248Z,58.71
2018-06-01T13:23:30.357Z,59.16
2018-06-01T13:24:34.473Z,59.28
2018-06-01T13:25:38.703Z,59.83
2018-06-01T13:26:42.774Z,59.95
2018-06-01T13:27:46.860Z,59.56
2018-06-01T13:28:51.298Z,59.35
2018-06-01T13:29:55.414Z,59.34
2018-06-01T13:30:59.674Z,58.80
2018-06-01T13:32:04.438Z,58.85
2018-06-01T13:33:09.074Z,57.54
2018-06-01T13:34:14.077Z,58.37
2018-06-01T13:35:19.134Z,58.21
2018-06-01T13:36:23.302Z,59.43
2018-06-01T13:37:27.421Z,59.90
2018-06-01T13:38:31.488Z,60.61
2018-06-01T13:39:35.566Z,61.52
2018-06-01T13:40:39.664Z,61.92
2018-06-01T13:41:44.139Z,62.55
2018-06-01T13:42:48.287Z,63.52
2018-06-01T13:43:52.357Z,64.25
2018-06-01T13:44:56.485Z,66.22
2018-06-01T13:46:00.802Z,67.41
2018-06-01T13:47:05.063Z,68.64
2018-06-01T13:48:10.277Z,69.48
2018-06-01T13:49:15.507Z,69.77